Cave Spring, Virginia
Current Conditions -  °F | °C
As of 11:54 AM on Friday 24 Oct 2014 (Local Time) from KROA Reporting Station
Broken Clouds Broken Clouds  
Wind Chill: 60°   Ceiling: 25000
Heat Index: 60°   Visibility: 10mi
Dew Point: 41°   Wind: 6mph
Humidity: 49%   Direction: 240°WSW
Pressure: 30.08"   Gusts: NA
Location:  37.23°N, 80.01°W
Report Text: KROA 241554Z 24005KT 10SM SCT180 BKN250 16/05 A3008 RMK AO2 SLP183 T01560050
Loading
Personal Weather Stations






























Interactive Weather Map
Tropical Storm Tracking
New forecast layout! Learn more

10-Day Weather Forecast

Advertisements
Track Severe Weather on mobile